createdAt,value
2018-09-04T00:00:14.549Z,98559.00
2018-09-04T00:02:44.128Z,98564.00
2018-09-04T00:05:13.352Z,98563.00
2018-09-04T00:07:42.492Z,98561.00
2018-09-04T00:10:11.956Z,98557.00
2018-09-04T00:12:41.637Z,98560.00
2018-09-04T00:15:10.832Z,98555.00
2018-09-04T00:17:40.940Z,98547.00
2018-09-04T00:20:10.148Z,98551.00
2018-09-04T00:22:39.349Z,98551.00
2018-09-04T00:25:08.580Z,98544.00
2018-09-04T00:27:38.547Z,98549.00
2018-09-04T00:30:08.216Z,98554.00
2018-09-04T00:32:37.336Z,98552.00
2018-09-04T00:35:06.813Z,98554.00
2018-09-04T00:37:35.971Z,98558.00
2018-09-04T00:40:06.340Z,98563.00
2018-09-04T00:42:35.488Z,98560.00
2018-09-04T00:45:04.808Z,98562.00
2018-09-04T00:47:34.117Z,98561.00
2018-09-04T00:50:03.240Z,98564.00
2018-09-04T00:52:32.512Z,98564.00
2018-09-04T00:55:01.680Z,98563.00
2018-09-04T00:57:30.880Z,98564.00
2018-09-04T01:00:00.608Z,98558.00
2018-09-04T01:02:29.792Z,98560.00
2018-09-04T01:04:58.955Z,98556.00
2018-09-04T01:07:28.080Z,98553.00
2018-09-04T01:09:57.272Z,98558.00
2018-09-04T01:12:26.512Z,98557.00
2018-09-04T01:14:58.274Z,98564.00
2018-09-04T01:17:27.480Z,98565.00
2018-09-04T01:19:56.608Z,98568.00
2018-09-04T01:22:26.060Z,98575.00
2018-09-04T01:24:55.232Z,98568.00
2018-09-04T01:27:24.328Z,98568.00
2018-09-04T01:29:53.496Z,98565.00
2018-09-04T01:32:22.603Z,98572.00
2018-09-04T01:34:51.631Z,98572.00
2018-09-04T01:37:20.783Z,98581.00
2018-09-04T01:39:49.904Z,98583.00
2018-09-04T01:42:19.296Z,98592.00
2018-09-04T01:44:48.628Z,98592.00
2018-09-04T01:47:17.757Z,98595.00
2018-09-04T01:49:46.928Z,98590.00
2018-09-04T01:52:16.292Z,98592.00
2018-09-04T01:54:45.645Z,98582.00
2018-09-04T01:57:14.776Z,98585.00
2018-09-04T01:59:43.880Z,98585.00
2018-09-04T02:02:14.276Z,98582.00
2018-09-04T02:04:43.420Z,98583.00
2018-09-04T02:07:12.744Z,98587.00
2018-09-04T02:09:41.904Z,98586.00
2018-09-04T02:12:11.094Z,98583.00
2018-09-04T02:14:40.352Z,98585.00
2018-09-04T02:17:09.844Z,98582.00
2018-09-04T02:19:38.940Z,98581.00
2018-09-04T02:22:08.140Z,98579.00
2018-09-04T02:24:37.540Z,98585.00
2018-09-04T02:27:06.712Z,98590.00
2018-09-04T02:29:35.783Z,98590.00
2018-09-04T02:32:04.887Z,98599.00
2018-09-04T02:34:34.076Z,98602.00
2018-09-04T02:37:03.300Z,98594.00
2018-09-04T02:39:32.384Z,98593.00
2018-09-04T02:42:01.476Z,98591.00
2018-09-04T02:44:30.909Z,98589.00
2018-09-04T02:47:00.068Z,98588.00
2018-09-04T02:49:29.266Z,98594.00
2018-09-04T02:51:58.471Z,98589.00
2018-09-04T02:54:27.580Z,98591.00
2018-09-04T02:56:56.697Z,98589.00
2018-09-04T02:59:26.493Z,98598.00
2018-09-04T03:01:55.676Z,98590.00
2018-09-04T03:04:25.292Z,98587.00
2018-09-04T03:06:54.992Z,98585.00
2018-09-04T03:09:24.083Z,98583.00
2018-09-04T03:11:53.520Z,98581.00
2018-09-04T03:14:22.892Z,98588.00
2018-09-04T03:16:51.976Z,98585.00
2018-09-04T03:19:21.071Z,98588.00
2018-09-04T03:21:50.213Z,98590.00
2018-09-04T03:24:19.413Z,98589.00
2018-09-04T03:26:48.468Z,98586.00
2018-09-04T03:29:17.556Z,98591.00
2018-09-04T03:31:47.684Z,98591.00
2018-09-04T03:34:16.884Z,98590.00
2018-09-04T03:36:46.116Z,98596.00
2018-09-04T03:39:15.700Z,98596.00
2018-09-04T03:41:45.129Z,98595.00
2018-09-04T03:44:14.614Z,98588.00
2018-09-04T03:46:43.688Z,98589.00
2018-09-04T03:49:12.924Z,98588.00
2018-09-04T03:51:42.328Z,98590.00
2018-09-04T03:54:11.487Z,98589.00
2018-09-04T03:56:40.696Z,98594.00
2018-09-04T03:59:09.888Z,98591.00
2018-09-04T04:01:39.128Z,98590.00
2018-09-04T04:04:08.193Z,98589.00
2018-09-04T04:06:37.253Z,98587.00
2018-09-04T04:09:09.172Z,98585.00
2018-09-04T04:11:38.240Z,98586.00
2018-09-04T04:14:07.888Z,98594.00
2018-09-04T04:16:36.971Z,98589.00
2018-09-04T04:19:06.130Z,98597.00
2018-09-04T04:21:35.323Z,98597.00
2018-09-04T04:24:04.450Z,98598.00
2018-09-04T04:26:33.656Z,98608.00
2018-09-04T04:29:02.844Z,98612.00
2018-09-04T04:31:32.332Z,98615.00
2018-09-04T04:34:01.560Z,98612.00
2018-09-04T04:36:30.672Z,98611.00
2018-09-04T04:38:59.756Z,98613.00
2018-09-04T04:41:29.152Z,98611.00
2018-09-04T04:43:58.320Z,98619.00
2018-09-04T04:46:27.464Z,98619.00
2018-09-04T04:48:56.840Z,98618.00
2018-09-04T04:51:26.016Z,98616.00
2018-09-04T04:53:55.206Z,98625.00
2018-09-04T04:56:24.312Z,98629.00
2018-09-04T04:58:54.548Z,98630.00
2018-09-04T05:01:23.961Z,98627.00
2018-09-04T05:03:53.086Z,98631.00
2018-09-04T05:06:22.221Z,98633.00
2018-09-04T05:08:51.367Z,98629.00
2018-09-04T05:11:21.495Z,98632.00
2018-09-04T05:13:51.296Z,98635.00
2018-09-04T05:16:20.729Z,98636.00
2018-09-04T05:18:50.881Z,98638.00
2018-09-04T05:21:20.101Z,98638.00
2018-09-04T05:23:49.159Z,98641.00
2018-09-04T05:26:18.238Z,98643.00
2018-09-04T05:28:47.699Z,98648.00
2018-09-04T05:31:17.745Z,98644.00
2018-09-04T05:33:47.620Z,98637.00
2018-09-04T05:36:17.309Z,98641.00
2018-09-04T05:38:46.613Z,98638.00
2018-09-04T05:41:16.500Z,98644.00
2018-09-04T05:43:50.258Z,98640.00
2018-09-04T05:46:35.068Z,98641.00
2018-09-04T05:49:04.164Z,98646.00
2018-09-04T05:51:33.391Z,98643.00
2018-09-04T05:54:02.889Z,98645.00
2018-09-04T05:56:32.072Z,98639.00
2018-09-04T05:59:01.288Z,98637.00
2018-09-04T06:01:30.662Z,98642.00
2018-09-04T06:03:59.824Z,98637.00
2018-09-04T06:06:29.880Z,98641.00
2018-09-04T06:08:59.852Z,98642.00
2018-09-04T06:11:29.097Z,98641.00
2018-09-04T06:13:58.206Z,98648.00
2018-09-04T06:16:28.413Z,98650.00
2018-09-04T06:18:57.508Z,98647.00
2018-09-04T06:21:26.748Z,98650.00
2018-09-04T06:23:56.081Z,98646.00
2018-09-04T06:26:25.143Z,98641.00
2018-09-04T06:28:54.472Z,98638.00
2018-09-04T06:31:23.805Z,98636.00
2018-09-04T06:33:53.235Z,98640.00
2018-09-04T06:36:23.341Z,98638.00
2018-09-04T06:38:52.475Z,98644.00
2018-09-04T06:41:21.624Z,98642.00
2018-09-04T06:43:50.962Z,98647.00
2018-09-04T06:46:20.078Z,98642.00
2018-09-04T06:48:49.160Z,98648.00
2018-09-04T06:51:18.466Z,98648.00
2018-09-04T06:53:48.152Z,98648.00
2018-09-04T06:56:17.287Z,98653.00
2018-09-04T06:58:46.336Z,98655.00
2018-09-04T07:01:15.560Z,98647.00
2018-09-04T07:03:44.859Z,98649.00
2018-09-04T07:06:14.032Z,98646.00
2018-09-04T07:08:43.208Z,98656.00
2018-09-04T07:11:12.780Z,98655.00
2018-09-04T07:13:41.935Z,98658.00
2018-09-04T07:16:11.134Z,98652.00
2018-09-04T07:18:40.329Z,98652.00
2018-09-04T07:21:10.587Z,98655.00
2018-09-04T07:23:40.773Z,98659.00
2018-09-04T07:26:09.944Z,98660.00
2018-09-04T07:28:39.045Z,98656.00
2018-09-04T07:31:09.122Z,98660.00
2018-09-04T07:33:38.372Z,98654.00
2018-09-04T07:36:08.024Z,98653.00
2018-09-04T07:38:37.388Z,98657.00
2018-09-04T07:41:06.589Z,98658.00
2018-09-04T07:43:35.841Z,98655.00
2018-09-04T07:46:05.076Z,98650.00
2018-09-04T07:48:34.234Z,98642.00
2018-09-04T07:51:03.380Z,98641.00
2018-09-04T07:53:32.620Z,98639.00
2018-09-04T07:56:03.300Z,98643.00
2018-09-04T07:58:32.501Z,98638.00
2018-09-04T08:01:01.844Z,98640.00
2018-09-04T08:03:30.892Z,98621.00
2018-09-04T08:06:00.129Z,98614.00
2018-09-04T08:08:29.333Z,98612.00
2018-09-04T08:10:58.829Z,98610.00
2018-09-04T08:13:28.342Z,98610.00
2018-09-04T08:15:58.450Z,98607.00
2018-09-04T08:18:27.849Z,98615.00
2018-09-04T08:20:57.748Z,98611.00
2018-09-04T08:23:26.915Z,98611.00
2018-09-04T08:25:56.981Z,98602.00
2018-09-04T08:28:26.160Z,98600.00
2018-09-04T08:30:56.206Z,98591.00
2018-09-04T08:33:25.410Z,98585.00
2018-09-04T08:35:54.804Z,98583.00
2018-09-04T08:38:23.844Z,98588.00
2018-09-04T08:40:55.212Z,98580.00
2018-09-04T08:43:24.417Z,98583.00
2018-09-04T08:45:54.436Z,98577.00
2018-09-04T08:48:23.532Z,98567.00
2018-09-04T08:50:52.873Z,98561.00
2018-09-04T08:53:22.937Z,98558.00
2018-09-04T08:55:52.552Z,98571.00
2018-09-04T08:58:21.680Z,98588.00
2018-09-04T09:00:51.009Z,98582.00
2018-09-04T09:03:21.269Z,98564.00
2018-09-04T09:05:54.814Z,98543.00
2018-09-04T09:08:23.986Z,98532.00
2018-09-04T09:10:53.157Z,98523.00
2018-09-04T09:13:22.929Z,98520.00
2018-09-04T09:15:54.256Z,98515.00
2018-09-04T09:18:24.889Z,98498.00
2018-09-04T09:20:54.609Z,98491.00
2018-09-04T09:23:23.710Z,98498.00
2018-09-04T09:25:56.064Z,98507.00
2018-09-04T09:28:25.431Z,98518.00
2018-09-04T09:30:54.561Z,98535.00
2018-09-04T09:33:23.703Z,98519.00
2018-09-04T09:35:52.833Z,98517.00
2018-09-04T09:38:22.405Z,98515.00
2018-09-04T09:40:52.532Z,98511.00
2018-09-04T09:43:21.568Z,98507.00
2018-09-04T09:45:50.941Z,98508.00
2018-09-04T09:48:20.036Z,98493.00
2018-09-04T09:50:50.175Z,98518.00
2018-09-04T09:53:19.487Z,98513.00
2018-09-04T09:55:48.533Z,98506.00
2018-09-04T09:58:17.743Z,98502.00
2018-09-04T10:00:52.846Z,98503.00
2018-09-04T10:03:27.196Z,98522.00
2018-09-04T10:05:56.313Z,98525.00
2018-09-04T10:08:25.405Z,98526.00
2018-09-04T10:10:54.644Z,98512.00
2018-09-04T10:13:23.707Z,98513.00
2018-09-04T10:15:53.508Z,98514.00
2018-09-04T10:18:22.992Z,98506.00
2018-09-04T10:20:52.126Z,98515.00
2018-09-04T10:23:21.241Z,98516.00
2018-09-04T10:25:50.589Z,98511.00
2018-09-04T10:28:21.020Z,98498.00
2018-09-04T10:30:50.151Z,98484.00
2018-09-04T10:33:19.315Z,98486.00
2018-09-04T10:35:48.777Z,98487.00
2018-09-04T10:38:17.812Z,98479.00
2018-09-04T10:40:47.836Z,98474.00
2018-09-04T10:43:17.172Z,98486.00
2018-09-04T10:45:51.652Z,98482.00
2018-09-04T10:48:24.525Z,98478.00
2018-09-04T10:50:56.853Z,98478.00
2018-09-04T10:53:26.073Z,98473.00
2018-09-04T10:55:55.399Z,98473.00
2018-09-04T10:58:24.653Z,98476.00
2018-09-04T11:00:53.836Z,98472.00
2018-09-04T11:03:23.212Z,98468.00
2018-09-04T11:05:52.570Z,98471.00
2018-09-04T11:08:22.403Z,98477.00
2018-09-04T11:10:52.888Z,98478.00
2018-09-04T11:13:22.084Z,98486.00
2018-09-04T11:15:54.669Z,98487.00
2018-09-04T11:18:24.319Z,98485.00
2018-09-04T11:20:53.577Z,98476.00
2018-09-04T11:23:22.788Z,98468.00
2018-09-04T11:25:52.834Z,98474.00
2018-09-04T11:28:22.298Z,98470.00
2018-09-04T11:30:51.596Z,98475.00
2018-09-04T11:33:20.840Z,98486.00
2018-09-04T11:35:51.596Z,98484.00
2018-09-04T11:38:20.712Z,98484.00
2018-09-04T11:40:50.347Z,98479.00
2018-09-04T11:43:19.721Z,98480.00
2018-09-04T11:45:49.807Z,98490.00
2018-09-04T11:48:19.033Z,98474.00
2018-09-04T11:50:48.157Z,98474.00
2018-09-04T11:53:17.281Z,98479.00
2018-09-04T11:55:47.540Z,98476.00
2018-09-04T11:58:16.760Z,98458.00
2018-09-04T12:00:48.768Z,98449.00
2018-09-04T12:03:18.014Z,98447.00
2018-09-04T12:05:47.366Z,98439.00
2018-09-04T12:08:16.368Z,98436.00
2018-09-04T12:10:46.396Z,98429.00
2018-09-04T12:13:21.050Z,98435.00
2018-09-04T12:15:50.615Z,98440.00
2018-09-04T12:18:19.844Z,98436.00
2018-09-04T12:20:51.058Z,98454.00
2018-09-04T12:23:21.028Z,98458.00
2018-09-04T12:25:51.609Z,98460.00
2018-09-04T12:28:21.060Z,98471.00
2018-09-04T12:30:51.172Z,98465.00
2018-09-04T12:33:20.336Z,98457.00
2018-09-04T12:35:49.648Z,98464.00
2018-09-04T12:38:21.036Z,98461.00
2018-09-04T12:40:51.033Z,98454.00
2018-09-04T12:43:20.503Z,98446.00
2018-09-04T12:45:49.612Z,98446.00
2018-09-04T12:48:24.568Z,98447.00
2018-09-04T12:50:54.864Z,98450.00
2018-09-04T12:53:24.988Z,98450.00
2018-09-04T12:55:54.192Z,98443.00
2018-09-04T12:58:23.284Z,98442.00
2018-09-04T13:00:53.712Z,98442.00
2018-09-04T13:03:24.839Z,98450.00
2018-09-04T13:05:54.285Z,98441.00
2018-09-04T13:08:25.125Z,98437.00
2018-09-04T13:10:54.289Z,98435.00
2018-09-04T13:13:23.404Z,98444.00
2018-09-04T13:15:54.200Z,98436.00
2018-09-04T13:18:23.821Z,98443.00
2018-09-04T13:20:53.104Z,98446.00
2018-09-04T13:23:22.328Z,98451.00
2018-09-04T13:25:53.141Z,98448.00
2018-09-04T13:28:22.401Z,98445.00
2018-09-04T13:30:51.500Z,98452.00
2018-09-04T13:33:21.577Z,98445.00
2018-09-04T13:35:50.693Z,98449.00
2018-09-04T13:38:19.908Z,98452.00
2018-09-04T13:40:52.368Z,98451.00
2018-09-04T13:43:21.680Z,98446.00
2018-09-04T13:45:50.841Z,98436.00
2018-09-04T13:48:24.056Z,98434.00
2018-09-04T13:50:57.302Z,98440.00
2018-09-04T13:53:27.259Z,98443.00
2018-09-04T13:55:56.822Z,98438.00
2018-09-04T13:58:25.979Z,98423.00
2018-09-04T14:00:55.196Z,98425.00
2018-09-04T14:03:24.536Z,98418.00
2018-09-04T14:05:53.832Z,98423.00
2018-09-04T14:08:23.120Z,98417.00
2018-09-04T14:10:52.420Z,98414.00
2018-09-04T14:13:21.472Z,98418.00
2018-09-04T14:15:53.104Z,98416.00
2018-09-04T14:18:22.292Z,98417.00
2018-09-04T14:20:51.492Z,98413.00
2018-09-04T14:23:20.776Z,98412.00
2018-09-04T14:25:51.328Z,98414.00
2018-09-04T14:28:40.973Z,98416.00
2018-09-04T14:30:49.664Z,98424.00
2018-09-04T14:33:18.796Z,98427.00
2018-09-04T14:35:48.020Z,98431.00
2018-09-04T14:38:17.100Z,98433.00
2018-09-04T14:40:46.432Z,98432.00
2018-09-04T14:43:15.637Z,98435.00
2018-09-04T14:45:44.804Z,98436.00
2018-09-04T14:48:14.182Z,98432.00
2018-09-04T14:50:43.266Z,98433.00
2018-09-04T14:53:12.398Z,98436.00
2018-09-04T14:55:41.612Z,98443.00
2018-09-04T14:58:10.685Z,98443.00
2018-09-04T15:00:40.804Z,98438.00
2018-09-04T15:03:10.286Z,98445.00
2018-09-04T15:05:39.380Z,98450.00
2018-09-04T15:08:08.500Z,98444.00
2018-09-04T15:10:37.874Z,98450.00
2018-09-04T15:13:07.088Z,98450.00
2018-09-04T15:15:36.167Z,98448.00
2018-09-04T15:18:05.736Z,98446.00
2018-09-04T15:20:34.833Z,98439.00
2018-09-04T15:23:04.641Z,98441.00
2018-09-04T15:25:33.872Z,98445.00
2018-09-04T15:28:03.639Z,98447.00
2018-09-04T15:30:33.039Z,98447.00
